Time;durP1;ratioP1;P1;durP2;ratioP2;P2;SDS_P1;SDS_P2;PMS_P1;PMS_P2;Temp;Humidity;BMP_temperature;BMP_pressure;BME280_temperature;BME280_humidity;BME280_pressure;Samples;Min_cycle;Max_cycle;Signal;HPM_P1;HPM_P2
2022/09/13 00:00:38;;;;;;;2.33;1.90;;;11.70;99.90;;;;;;4990685;28;20034;-86
2022/09/13 00:03:04;;;;;;;3.22;2.10;;;11.70;99.90;;;;;;4992299;28;20048;-86
2022/09/13 00:05:31;;;;;;;2.70;2.20;;;11.60;99.90;;;;;;4995817;28;20037;-86
2022/09/13 00:07:57;;;;;;;3.05;2.35;;;11.40;99.90;;;;;;4997989;28;20069;-87
2022/09/13 00:10:24;;;;;;;3.60;2.42;;;11.20;99.90;;;;;;4999827;28;20041;-86
2022/09/13 00:12:50;;;;;;;2.38;2.00;;;11.30;99.90;;;;;;5027361;28;20038;-86
2022/09/13 00:15:16;;;;;;;3.47;2.33;;;11.20;99.90;;;;;;4993224;28;20033;-86
2022/09/13 00:17:42;;;;;;;2.42;2.22;;;11.30;99.90;;;;;;4988648;28;20030;-86
2022/09/13 00:20:08;;;;;;;3.22;2.38;;;11.30;99.90;;;;;;5003670;28;20033;-86
2022/09/13 00:22:34;;;;;;;4.32;2.42;;;11.20;99.90;;;;;;5001688;28;21403;-86
2022/09/13 00:25:03;;;;;;;3.38;2.60;;;11.20;99.90;;;;;;5001974;28;20030;-86
2022/09/13 00:27:31;;;;;;;4.93;3.83;;;11.20;99.90;;;;;;4971729;28;20045;-86
2022/09/13 00:29:57;;;;;;;6.07;3.00;;;11.30;99.90;;;;;;5009664;28;20021;-86
2022/09/13 00:32:22;;;;;;;3.33;2.50;;;11.20;99.90;;;;;;5018424;28;20101;-87
2022/09/13 00:34:48;;;;;;;2.05;1.85;;;11.20;99.90;;;;;;4986778;28;20044;-86
2022/09/13 00:37:14;;;;;;;2.63;1.88;;;10.80;99.90;;;;;;4993097;28;20038;-86
2022/09/13 00:39:40;;;;;;;1.75;1.65;;;10.50;99.90;;;;;;4996323;28;20041;-86
2022/09/13 00:42:12;;;;;;;1.27;1.23;;;10.40;99.90;;;;;;4997842;28;20045;-87
2022/09/13 00:45:16;;;;;;;1.15;1.05;;;10.50;99.90;;;;;;4985828;28;20415;-86
2022/09/13 00:47:58;;;;;;;1.15;1.05;;;10.60;99.90;;;;;;5017216;28;20030;-86
2022/09/13 00:50:32;;;;;;;1.50;1.40;;;10.70;99.90;;;;;;4984681;28;20037;-86
2022/09/13 00:53:05;;;;;;;1.73;1.63;;;10.80;99.90;;;;;;5027492;28;20025;-87
2022/09/13 00:55:50;;;;;;;2.60;1.92;;;10.90;99.90;;;;;;5013551;28;20060;-86
2022/09/13 00:58:22;;;;;;;2.30;1.88;;;10.90;99.90;;;;;;4986703;28;20029;-86
2022/09/13 01:00:49;;;;;;;1.73;1.63;;;10.90;99.90;;;;;;5006908;28;20057;-86
2022/09/13 01:03:17;;;;;;;1.85;1.70;;;10.90;99.90;;;;;;4993560;28;20053;-86
2022/09/13 01:05:48;;;;;;;2.15;1.98;;;10.90;99.90;;;;;;5005917;28;20030;-86
2022/09/13 01:08:21;;;;;;;3.15;2.10;;;11.00;99.90;;;;;;4998381;28;20049;-86
2022/09/13 01:10:49;;;;;;;2.65;2.17;;;11.00;99.90;;;;;;4997063;28;20072;-85
2022/09/13 01:13:25;;;;;;;2.60;2.03;;;11.10;99.90;;;;;;4986876;28;20034;-86
2022/09/13 01:15:51;;;;;;;2.15;1.95;;;11.00;99.90;;;;;;4997748;28;20087;-86
2022/09/13 01:18:18;;;;;;;3.67;2.00;;;10.80;99.90;;;;;;4996438;28;20032;-86
2022/09/13 01:21:11;;;;;;;2.28;2.08;;;10.80;99.90;;;;;;5005531;28;20030;-86
2022/09/13 01:24:06;;;;;;;2.50;2.00;;;10.80;99.90;;;;;;5017564;28;20029;-86
2022/09/13 01:26:48;;;;;;;1.90;1.80;;;10.80;99.90;;;;;;4998237;28;20073;-86
2022/09/13 01:29:35;;;;;;;1.30;1.20;;;10.80;99.90;;;;;;5018481;28;20519;-86
2022/09/13 01:32:27;;;;;;;1.30;1.23;;;10.70;99.90;;;;;;5013618;28;20034;-86
2022/09/13 01:34:56;;;;;;;1.52;1.42;;;10.70;99.90;;;;;;5019201;28;20022;-86
2022/09/13 01:37:37;;;;;;;;;;;10.40;99.90;;;;;;5007535;28;20034;-86
2022/09/13 01:40:28;;;;;;;1.90;1.50;;;10.20;99.90;;;;;;5018002;28;19923;-86
2022/09/13 01:43:01;;;;;;;1.52;1.38;;;10.20;99.90;;;;;;4996781;28;20054;-86
2022/09/13 01:45:35;;;;;;;1.60;1.50;;;10.30;99.90;;;;;;5007203;28;20006;-86
2022/09/13 01:48:16;;;;;;;4.68;1.83;;;10.40;99.90;;;;;;5007792;28;20061;-86
2022/09/13 01:50:46;;;;;;;1.83;1.50;;;10.50;99.90;;;;;;4996934;28;20099;-86
2022/09/13 01:53:51;;;;;;;1.90;1.80;;;10.60;99.90;;;;;;4994991;28;20038;-86
2022/09/13 01:56:27;;;;;;;2.78;1.75;;;10.60;99.90;;;;;;4918117;29;20036;-86
2022/09/13 01:59:03;;;;;;;3.63;1.88;;;10.50;99.90;;;;;;4924811;29;20027;-87
2022/09/13 02:01:35;;;;;;;1.88;1.77;;;10.50;99.90;;;;;;4977401;28;20029;-86
2022/09/13 02:04:15;;;;;;;2.67;2.20;;;10.60;99.90;;;;;;5010869;28;20069;-86
2022/09/13 02:06:49;;;;;;;4.78;1.70;;;10.60;99.90;;;;;;5006788;28;20051;-86
2022/09/13 02:09:21;;;;;;;1.70;1.60;;;10.70;99.90;;;;;;5009667;28;20049;-86
2022/09/13 02:11:56;;;;;;;1.30;1.20;;;10.60;99.90;;;;;;5031379;28;20415;-86
2022/09/13 02:14:29;;;;;;;1.38;1.30;;;10.40;99.90;;;;;;5006392;28;20023;-87
2022/09/13 02:17:21;;;;;;;1.48;1.38;;;10.50;99.90;;;;;;5000633;28;20032;-87
2022/09/13 02:20:04;;;;;;;1.17;1.13;;;10.40;99.90;;;;;;5011776;28;20032;-87
2022/09/13 02:22:35;;;;;;;1.23;1.20;;;10.40;99.90;;;;;;5001906;28;20025;-87
2022/09/13 02:25:06;;;;;;;2.03;1.80;;;10.50;99.90;;;;;;5004234;28;20010;-87
2022/09/13 02:27:34;;;;;;;1.83;1.48;;;10.40;99.90;;;;;;5016344;28;20022;-87
2022/09/13 02:30:11;;;;;;;1.40;1.30;;;10.40;99.90;;;;;;5008212;28;20030;-87
2022/09/13 02:32:42;;;;;;;2.72;1.70;;;10.50;99.90;;;;;;5005623;28;20292;-86
2022/09/13 02:35:19;;;;;;;2.92;2.22;;;10.50;99.90;;;;;;5010221;28;20010;-87
2022/09/13 02:37:52;;;;;;;2.70;1.80;;;10.50;99.90;;;;;;4994958;28;20034;-87
2022/09/13 02:40:24;;;;;;;2.53;2.00;;;10.20;99.90;;;;;;4995520;28;20026;-87
2022/09/13 02:42:58;;;;;;;3.55;2.13;;;9.90;99.90;;;;;;4998189;28;20081;-87
2022/09/13 02:45:30;;;;;;;3.35;2.30;;;9.70;99.90;;;;;;4996378;28;20023;-87
2022/09/13 02:48:01;;;;;;;3.30;1.95;;;9.80;99.90;;;;;;4993030;28;20022;-88
2022/09/13 02:50:40;;;;;;;4.90;2.10;;;9.90;99.90;;;;;;4998120;28;20029;-87
2022/09/13 02:53:34;;;;;;;2.25;2.05;;;9.80;99.90;;;;;;5005717;28;20097;-88
2022/09/13 02:56:33;;;;;;;2.97;2.22;;;9.70;99.90;;;;;;4986395;28;20030;-87
2022/09/13 02:59:03;;;;;;;2.75;2.00;;;9.80;99.90;;;;;;5029988;28;20617;-88
2022/09/13 03:01:29;;;;;;;2.38;2.13;;;9.80;99.90;;;;;;4996349;28;20057;-88
2022/09/13 03:03:55;;;;;;;2.88;1.80;;;9.70;99.90;;;;;;5003465;28;21010;-88
2022/09/13 03:06:23;;;;;;;2.10;1.90;;;9.60;99.90;;;;;;5003420;28;20018;-87
2022/09/13 03:08:48;;;;;;;2.50;2.07;;;9.70;99.90;;;;;;5000661;28;20045;-88
2022/09/13 03:11:51;;;;;;;2.35;2.03;;;9.60;99.90;;;;;;5012892;28;20281;-87
2022/09/13 03:14:41;;;;;;;2.20;2.00;;;9.70;99.90;;;;;;5013550;28;20030;-88
2022/09/13 03:17:31;;;;;;;3.15;2.15;;;9.80;99.90;;;;;;5006351;28;20438;-87
2022/09/13 03:20:18;;;;;;;2.55;2.22;;;9.90;99.90;;;;;;5010684;28;20029;-88
2022/09/13 03:23:07;;;;;;;3.17;2.17;;;9.70;99.90;;;;;;5000801;28;20550;-87
2022/09/13 03:25:48;;;;;;;2.50;2.30;;;9.50;99.90;;;;;;5008762;28;20022;-87
2022/09/13 03:28:44;;;;;;;1.95;1.83;;;9.50;99.90;;;;;;5034233;28;20018;-87
2022/09/13 03:31:32;;;;;;;2.05;1.95;;;9.50;99.90;;;;;;4995033;28;20034;-87
2022/09/13 03:34:05;;;;;;;2.28;2.10;;;9.40;99.90;;;;;;4992375;28;20038;-87
2022/09/13 03:36:41;;;;;;;2.15;1.80;;;9.20;99.90;;;;;;5023003;28;20108;-87
2022/09/13 03:39:18;;;;;;;3.72;1.88;;;9.20;99.90;;;;;;4989851;28;20029;-87
2022/09/13 03:41:49;;;;;;;2.92;2.08;;;9.30;99.90;;;;;;5004217;28;20069;-87
2022/09/13 03:44:18;;;;;;;2.05;1.85;;;9.30;99.90;;;;;;4988192;28;20029;-87
2022/09/13 03:46:47;;;;;;;3.33;2.08;;;9.30;99.90;;;;;;5000227;28;20026;-87
2022/09/13 03:49:19;;;;;;;2.40;1.90;;;9.30;99.90;;;;;;5003978;28;20076;-87
2022/09/13 03:51:47;;;;;;;3.30;2.40;;;9.00;99.90;;;;;;4997613;28;20045;-87
2022/09/13 03:54:23;;;;;;;5.22;2.15;;;9.00;99.90;;;;;;5010626;28;20088;-87
2022/09/13 03:57:08;;;;;;;2.40;2.15;;;9.10;99.90;;;;;;4990918;28;20398;-87
2022/09/13 03:59:38;;;;;;;2.20;1.90;;;9.20;99.90;;;;;;5000193;28;20022;-87
2022/09/13 04:02:06;;;;;;;4.20;2.60;;;9.30;99.90;;;;;;5013238;28;20038;-87
2022/09/13 04:04:32;;;;;;;2.92;1.92;;;9.30;99.90;;;;;;4998665;28;20442;-87
2022/09/13 04:07:02;;;;;;;2.80;2.40;;;9.30;99.90;;;;;;4998745;28;20030;-88
2022/09/13 04:09:28;;;;;;;2.10;1.92;;;9.40;99.90;;;;;;5001243;28;20061;-87
2022/09/13 04:11:53;;;;;;;3.20;2.33;;;9.50;99.90;;;;;;4994162;28;20503;-88
2022/09/13 04:14:21;;;;;;;3.92;2.40;;;9.60;99.90;;;;;;5001771;28;20026;-87
2022/09/13 04:16:46;;;;;;;3.90;2.45;;;9.60;99.90;;;;;;5000521;28;20025;-87
2022/09/13 04:19:12;;;;;;;3.78;2.40;;;9.60;99.90;;;;;;5001424;28;20037;-87
2022/09/13 04:21:38;;;;;;;4.15;2.40;;;9.70;99.90;;;;;;5002307;28;20061;-87
2022/09/13 04:24:04;;;;;;;2.08;1.75;;;9.70;99.90;;;;;;5005598;28;20085;-87
2022/09/13 04:26:30;;;;;;;1.67;1.58;;;9.80;99.90;;;;;;5000500;28;20037;-87
2022/09/13 04:28:55;;;;;;;2.33;1.77;;;9.80;99.90;;;;;;5000524;28;20022;-88
2022/09/13 04:31:21;;;;;;;1.98;1.80;;;9.80;99.90;;;;;;5001120;28;20094;-87
2022/09/13 04:33:48;;;;;;;1.65;1.55;;;9.70;99.90;;;;;;5003684;28;20021;-87
2022/09/13 04:36:15;;;;;;;1.60;1.50;;;9.60;99.90;;;;;;5013480;28;20041;-87
2022/09/13 04:38:41;;;;;;;1.60;1.50;;;9.60;99.90;;;;;;5008064;28;20068;-87
2022/09/13 04:41:06;;;;;;;1.85;1.27;;;9.60;99.90;;;;;;5010791;28;20034;-87
2022/09/13 04:43:32;;;;;;;3.22;1.70;;;9.50;99.90;;;;;;5005503;28;20041;-88
2022/09/13 04:46:01;;;;;;;4.82;1.92;;;9.50;99.90;;;;;;5020138;28;20108;-87
2022/09/13 04:48:26;;;;;;;2.85;1.90;;;9.40;99.90;;;;;;5021916;28;20081;-87
2022/09/13 04:50:52;;;;;;;1.80;1.70;;;9.30;99.90;;;;;;5009769;28;20033;-87
2022/09/13 04:53:18;;;;;;;1.80;1.60;;;9.20;99.90;;;;;;5005665;28;20037;-87
2022/09/13 04:55:43;;;;;;;1.92;1.73;;;9.10;99.90;;;;;;5014838;28;20026;-87
2022/09/13 04:58:10;;;;;;;3.20;1.70;;;8.90;99.90;;;;;;5014920;28;20056;-87
2022/09/13 05:00:36;;;;;;;2.60;1.85;;;8.80;99.90;;;;;;5010135;28;20036;-87
2022/09/13 05:03:02;;;;;;;2.95;2.00;;;8.80;99.90;;;;;;5011744;28;20030;-87
2022/09/13 05:05:29;;;;;;;2.15;1.90;;;9.00;99.90;;;;;;5002029;28;20029;-87
2022/09/13 05:07:55;;;;;;;2.63;1.90;;;9.10;99.90;;;;;;5011460;28;20100;-87
2022/09/13 05:10:21;;;;;;;3.03;2.20;;;9.20;99.90;;;;;;4998066;28;20022;-87
2022/09/13 05:12:47;;;;;;;1.85;1.73;;;9.20;99.90;;;;;;4995924;28;20030;-88
2022/09/13 05:15:13;;;;;;;2.30;2.10;;;9.20;99.90;;;;;;5013731;28;20060;-87
2022/09/13 05:17:38;;;;;;;3.50;1.77;;;9.20;99.90;;;;;;4999022;28;20074;-87
2022/09/13 05:20:05;;;;;;;1.70;1.60;;;9.10;99.90;;;;;;5000013;28;20036;-87
2022/09/13 05:22:30;;;;;;;1.83;1.60;;;9.10;99.90;;;;;;5001762;28;20029;-86
2022/09/13 05:24:56;;;;;;;1.40;1.30;;;9.10;99.90;;;;;;5007807;28;20036;-87
2022/09/13 05:27:22;;;;;;;2.15;1.70;;;9.20;99.90;;;;;;4998737;28;20033;-87
2022/09/13 05:29:47;;;;;;;4.72;2.30;;;9.30;99.90;;;;;;5002049;28;20084;-87
2022/09/13 05:32:13;;;;;;;4.38;2.60;;;9.20;99.90;;;;;;4984676;28;20042;-86
2022/09/13 05:34:39;;;;;;;3.45;2.05;;;9.10;99.90;;;;;;5022385;28;20089;-86
2022/09/13 05:37:05;;;;;;;2.55;1.98;;;9.00;99.90;;;;;;4999405;28;20437;-86
2022/09/13 05:39:30;;;;;;;2.80;2.50;;;9.10;99.90;;;;;;5000669;28;20044;-86
2022/09/13 05:41:56;;;;;;;3.30;2.20;;;9.10;99.90;;;;;;4996886;28;20112;-87
2022/09/13 05:44:22;;;;;;;2.97;2.45;;;9.30;99.90;;;;;;5005419;28;20089;-87
2022/09/13 05:46:48;;;;;;;5.97;2.67;;;9.40;99.90;;;;;;5005342;28;20522;-86
2022/09/13 05:49:14;;;;;;;4.28;2.20;;;9.40;99.90;;;;;;5004013;28;20022;-86
2022/09/13 05:51:39;;;;;;;2.72;2.30;;;9.50;99.90;;;;;;5000215;28;20034;-86
2022/09/13 05:54:05;;;;;;;3.72;2.40;;;9.50;99.90;;;;;;5002415;28;20026;-86
2022/09/13 05:56:31;;;;;;;2.17;1.90;;;9.50;99.90;;;;;;4997031;28;20120;-87
2022/09/13 05:58:57;;;;;;;2.85;2.65;;;9.50;99.90;;;;;;5008799;28;20045;-86
2022/09/13 06:01:25;;;;;;;2.38;2.17;;;9.60;99.90;;;;;;5009659;28;20025;-86
2022/09/13 06:03:54;;;;;;;2.70;2.47;;;9.70;99.90;;;;;;5028669;28;20034;-86
2022/09/13 06:06:21;;;;;;;2.75;2.45;;;9.80;99.90;;;;;;5001974;28;20046;-87
2022/09/13 06:08:50;;;;;;;2.97;2.30;;;10.00;99.90;;;;;;5000429;28;20076;-86
2022/09/13 06:11:16;;;;;;;3.72;3.00;;;10.10;99.90;;;;;;4997326;28;20021;-86
2022/09/13 06:13:44;;;;;;;3.35;2.75;;;10.20;99.90;;;;;;5017187;28;20378;-86
2022/09/13 06:16:12;;;;;;;3.90;2.58;;;10.30;99.90;;;;;;4990933;28;20722;-86
2022/09/13 06:18:38;;;;;;;4.70;2.90;;;10.50;99.90;;;;;;4997218;28;20057;-86
2022/09/13 06:21:10;;;;;;;7.93;3.13;;;10.60;99.90;;;;;;4998865;28;20040;-86
2022/09/13 06:23:37;;;;;;;4.00;3.33;;;10.70;99.90;;;;;;4994544;28;20037;-86
2022/09/13 06:26:06;;;;;;;4.05;3.25;;;10.90;99.90;;;;;;4995762;28;20029;-86
2022/09/13 06:28:32;;;;;;;4.40;2.92;;;11.00;99.90;;;;;;4997093;28;20045;-86
2022/09/13 06:31:03;;;;;;;5.07;3.08;;;11.20;99.90;;;;;;5002342;28;20030;-86
2022/09/13 06:33:28;;;;;;;3.53;2.70;;;11.40;99.90;;;;;;4996446;28;20049;-86
2022/09/13 06:35:54;;;;;;;7.50;2.88;;;11.40;99.90;;;;;;5003857;28;20029;-86
2022/09/13 06:38:20;;;;;;;5.95;3.30;;;11.50;99.90;;;;;;5020137;28;20401;-87
2022/09/13 06:40:45;;;;;;;5.70;3.20;;;11.60;99.90;;;;;;5007390;28;20033;-86
2022/09/13 06:43:11;;;;;;;3.80;3.10;;;11.80;99.90;;;;;;5004403;28;20034;-86
2022/09/13 06:45:37;;;;;;;4.78;3.17;;;12.00;99.90;;;;;;5016020;28;20447;-86
2022/09/13 06:48:02;;;;;;;4.32;2.92;;;12.20;99.90;;;;;;4999237;28;20030;-86
2022/09/13 06:50:28;;;;;;;7.10;3.50;;;12.40;99.90;;;;;;4999699;28;20033;-86
2022/09/13 06:52:56;;;;;;;5.85;3.33;;;12.60;99.90;;;;;;5001301;28;20149;-86
2022/09/13 06:55:22;;;;;;;4.90;3.47;;;12.70;99.90;;;;;;5008690;28;20496;-86
2022/09/13 06:57:47;;;;;;;5.53;3.08;;;12.90;99.90;;;;;;4998414;28;20109;-86
2022/09/13 07:00:14;;;;;;;3.50;3.20;;;13.00;99.90;;;;;;5020208;28;20022;-86
2022/09/13 07:02:39;;;;;;;3.67;2.60;;;13.20;99.90;;;;;;5006668;28;20046;-86
2022/09/13 07:05:06;;;;;;;3.50;2.30;;;13.40;99.90;;;;;;5004185;28;20564;-86
2022/09/13 07:07:31;;;;;;;2.97;2.38;;;13.60;99.90;;;;;;4991182;28;20029;-86
2022/09/13 07:09:57;;;;;;;2.95;2.53;;;13.70;99.90;;;;;;5000663;28;20022;-86
2022/09/13 07:12:22;;;;;;;5.43;2.20;;;13.90;99.90;;;;;;5012525;28;20037;-86
2022/09/13 07:14:48;;;;;;;3.17;2.13;;;14.00;99.90;;;;;;5024075;28;20060;-86
2022/09/13 07:17:14;;;;;;;2.95;2.65;;;14.10;99.90;;;;;;4991856;28;20065;-87
2022/09/13 07:19:39;;;;;;;3.25;2.45;;;14.20;99.90;;;;;;5012856;28;20022;-86
2022/09/13 07:22:05;;;;;;;3.75;2.17;;;14.20;99.90;;;;;;5000508;28;20033;-86
2022/09/13 07:24:31;;;;;;;4.05;2.58;;;14.40;99.90;;;;;;5000111;28;20052;-86
2022/09/13 07:26:57;;;;;;;2.95;1.88;;;14.40;99.90;;;;;;5000843;28;20152;-86
2022/09/13 07:29:22;;;;;;;2.42;2.22;;;14.50;99.90;;;;;;5007520;28;20037;-86
2022/09/13 07:31:53;;;;;;;4.30;1.73;;;14.60;99.90;;;;;;5000704;28;20038;-86
2022/09/13 07:34:21;;;;;;;2.40;2.20;;;14.70;99.90;;;;;;5001440;28;20084;-86
2022/09/13 07:36:48;;;;;;;2.58;1.77;;;14.90;99.90;;;;;;5019337;28;20426;-86
2022/09/13 07:39:15;;;;;;;1.80;1.70;;;14.90;99.90;;;;;;5007232;28;20030;-86
2022/09/13 07:41:40;;;;;;;2.60;1.70;;;15.00;99.90;;;;;;5002837;28;20030;-85
2022/09/13 07:44:06;;;;;;;1.70;1.60;;;15.00;99.90;;;;;;5002610;28;20033;-86
2022/09/13 07:46:40;;;;;;;2.42;1.80;;;15.10;99.90;;;;;;5002486;28;20124;-86
2022/09/13 07:49:06;;;;;;;2.55;1.83;;;15.20;99.90;;;;;;5001852;28;20514;-86
2022/09/13 07:51:35;;;;;;;2.47;1.90;;;15.30;99.90;;;;;;5005995;28;20048;-86
2022/09/13 07:54:04;;;;;;;1.90;1.80;;;15.40;99.90;;;;;;5003950;28;20030;-86
2022/09/13 07:56:32;;;;;;;2.13;1.92;;;15.60;99.90;;;;;;5009213;28;20478;-86
2022/09/13 07:59:00;;;;;;;1.83;1.73;;;15.70;99.90;;;;;;5019026;28;20076;-85
2022/09/13 08:01:28;;;;;;;1.40;1.35;;;15.80;99.90;;;;;;5014912;28;20034;-85
2022/09/13 08:03:59;;;;;;;2.00;1.67;;;16.00;99.90;;;;;;5006233;28;20045;-85
2022/09/13 08:06:27;;;;;;;3.03;1.60;;;16.20;99.90;;;;;;5002359;28;20497;-86
2022/09/13 08:08:53;;;;;;;1.60;1.50;;;16.40;99.90;;;;;;4999162;28;20042;-86
2022/09/13 08:11:33;;;;;;;1.70;1.60;;;16.60;99.90;;;;;;4983972;28;20045;-86
2022/09/13 08:13:59;;;;;;;2.42;1.92;;;16.80;99.90;;;;;;4999428;28;20026;-86
2022/09/13 08:16:26;;;;;;;1.60;1.50;;;17.00;99.90;;;;;;4981751;28;20025;-86
2022/09/13 08:18:54;;;;;;;1.52;1.40;;;17.10;99.90;;;;;;4991368;28;20105;-86
2022/09/13 08:21:21;;;;;;;1.50;1.40;;;17.10;99.90;;;;;;4992941;28;20030;-86
2022/09/13 08:23:47;;;;;;;1.60;1.50;;;17.20;99.90;;;;;;4997846;28;20038;-87
2022/09/13 08:26:13;;;;;;;3.17;1.85;;;17.40;99.90;;;;;;4982222;28;20038;-87
2022/09/13 08:28:40;;;;;;;2.33;1.58;;;17.60;99.90;;;;;;4979634;28;20117;-87
2022/09/13 08:31:10;;;;;;;1.95;1.73;;;17.90;99.90;;;;;;4974562;28;20045;-87
2022/09/13 08:33:36;;;;;;;3.65;1.40;;;18.20;99.90;;;;;;4980913;28;20022;-87
2022/09/13 08:36:03;;;;;;;1.40;1.30;;;18.30;99.90;;;;;;4985463;28;20063;-87
2022/09/13 08:38:30;;;;;;;1.52;1.42;;;18.20;99.90;;;;;;4979676;28;20065;-86
2022/09/13 08:40:58;;;;;;;1.58;1.48;;;18.10;99.90;;;;;;4993852;28;20403;-86
2022/09/13 08:43:55;;;;;;;2.17;1.50;;;18.00;99.90;;;;;;4982684;28;20026;-87
2022/09/13 08:46:30;;;;;;;1.80;1.50;;;18.00;99.90;;;;;;4977317;28;20117;-87
2022/09/13 08:49:02;;;;;;;1.60;1.50;;;18.20;99.90;;;;;;4994015;28;20034;-86
2022/09/13 08:51:39;;;;;;;1.38;1.27;;;18.30;99.90;;;;;;4978664;28;20033;-87
2022/09/13 08:54:05;;;;;;;1.75;1.65;;;18.50;99.90;;;;;;4980016;28;20018;-87
2022/09/13 08:56:47;;;;;;;2.58;1.50;;;18.80;99.90;;;;;;4982113;28;20031;-87
2022/09/13 08:59:25;;;;;;;1.60;1.50;;;18.90;99.90;;;;;;4981304;28;20059;-87
2022/09/13 09:01:50;;;;;;;;;;;19.00;99.90;;;;;;4982500;28;20523;-87
2022/09/13 09:04:31;;;;;;;2.67;1.60;;;19.30;99.90;;;;;;4977666;28;19941;-87
2022/09/13 09:07:26;;;;;;;1.50;1.40;;;19.30;99.90;;;;;;4978163;28;20180;-87
2022/09/13 09:10:14;;;;;;;1.67;1.50;;;19.40;99.90;;;;;;4998122;28;20041;-87
2022/09/13 09:12:51;;;;;;;1.30;1.30;;;19.70;99.90;;;;;;4998048;28;20026;-87
2022/09/13 09:15:20;;;;;;;1.65;1.55;;;19.70;99.90;;;;;;4985551;28;20025;-87
2022/09/13 09:18:12;;;;;;;2.25;1.50;;;19.80;98.20;;;;;;5013358;28;20065;-87
2022/09/13 09:20:44;;;;;;;2.20;1.70;;;19.70;99.60;;;;;;5013117;28;20025;-87
2022/09/13 09:23:17;;;;;;;1.98;1.65;;;19.80;98.70;;;;;;4997824;28;20674;-87
2022/09/13 09:25:43;;;;;;;2.08;1.70;;;20.00;99.90;;;;;;4991900;28;20022;-86
2022/09/13 09:28:17;;;;;;;3.85;1.60;;;20.10;99.90;;;;;;4994827;28;20026;-87
2022/09/13 09:30:48;;;;;;;1.88;1.70;;;20.30;98.90;;;;;;4993845;28;20085;-86
2022/09/13 09:33:42;;;;;;;2.35;1.65;;;20.50;99.90;;;;;;4996297;28;20029;-87
2022/09/13 09:36:18;;;;;;;2.63;1.42;;;20.80;98.90;;;;;;4990301;28;20469;-87
2022/09/13 09:38:43;;;;;;;1.70;1.60;;;20.90;96.20;;;;;;4995056;28;20025;-87
2022/09/13 09:41:15;;;;;;;1.92;1.77;;;21.10;96.80;;;;;;4993860;28;20026;-87
2022/09/13 09:43:59;;;;;;;2.83;1.50;;;21.10;94.90;;;;;;4993514;28;20413;-86
2022/09/13 09:46:29;;;;;;;1.95;1.48;;;21.20;94.70;;;;;;5000643;28;20018;-87
2022/09/13 09:52:42;;;;;;;1.60;1.50;;;21.60;95.50;;;;;;5007763;28;20068;-87
2022/09/13 09:55:19;;;;;;;2.85;1.90;;;21.40;94.40;;;;;;4994605;28;20034;-87
2022/09/13 09:57:50;;;;;;;2.13;1.60;;;21.50;94.10;;;;;;4989765;28;20061;-87
2022/09/13 10:00:17;;;;;;;2.10;1.60;;;21.70;94.50;;;;;;5019599;28;20285;-88
2022/09/13 10:02:44;;;;;;;3.72;1.60;;;21.70;91.90;;;;;;5003109;28;20030;-87
2022/09/13 10:05:11;;;;;;;1.70;1.60;;;22.00;91.30;;;;;;4994989;28;20024;-87
2022/09/13 10:07:37;;;;;;;2.33;1.65;;;21.70;93.10;;;;;;4998842;28;20108;-87
2022/09/13 10:10:26;;;;;;;2.75;1.70;;;22.10;93.70;;;;;;4996712;28;20065;-88
2022/09/13 10:12:55;;;;;;;1.40;1.30;;;22.30;92.20;;;;;;4994860;28;20064;-87
2022/09/13 10:15:24;;;;;;;3.30;1.60;;;22.10;90.80;;;;;;4999861;28;20180;-87
2022/09/13 10:18:15;;;;;;;1.33;1.23;;;22.10;91.10;;;;;;4997714;28;20033;-86
2022/09/13 10:20:41;;;;;;;2.33;1.50;;;22.20;92.20;;;;;;5015230;28;20036;-87
2022/09/13 10:23:13;;;;;;;1.70;1.60;;;22.40;90.20;;;;;;5021924;28;20033;-86
2022/09/13 10:25:41;;;;;;;1.98;1.20;;;22.50;90.30;;;;;;4997451;28;20137;-87
2022/09/13 10:28:11;;;;;;;;;;;22.70;91.20;;;;;;4989864;28;20037;-87
2022/09/13 10:30:52;;;;;;;1.95;1.40;;;23.00;90.60;;;;;;4994583;28;20008;-87
2022/09/13 10:33:34;;;;;;;1.98;1.25;;;23.10;90.10;;;;;;5013156;28;20108;-87
2022/09/13 10:36:05;;;;;;;2.60;1.60;;;23.30;89.60;;;;;;5008795;28;20061;-87
2022/09/13 10:38:43;;;;;;;1.63;1.52;;;23.40;93.80;;;;;;5030166;28;20122;-87
2022/09/13 10:41:19;;;;;;;1.83;1.33;;;23.40;90.50;;;;;;4996256;28;20105;-87
2022/09/13 10:43:46;;;;;;;1.60;1.17;;;23.60;88.20;;;;;;5003313;28;20032;-87
2022/09/13 10:46:20;;;;;;;3.22;1.40;;;23.60;89.50;;;;;;5002939;28;20050;-87
2022/09/13 10:48:57;;;;;;;2.25;1.35;;;23.60;84.30;;;;;;5006078;28;20029;-87
2022/09/13 10:51:25;;;;;;;1.50;1.30;;;23.70;86.80;;;;;;5002011;28;20026;-87
2022/09/13 10:53:51;;;;;;;;;;;23.90;88.10;;;;;;5001383;28;20070;-87
2022/09/13 10:56:24;;;;;;;2.45;1.50;;;24.00;79.30;;;;;;5001263;28;19917;-87
2022/09/13 10:58:50;;;;;;;1.98;1.15;;;24.00;82.80;;;;;;5014782;28;20029;-88
2022/09/13 11:01:30;;;;;;;1.23;1.20;;;23.60;83.50;;;;;;5000090;28;20030;-88
2022/09/13 11:04:27;;;;;;;1.92;1.27;;;23.70;86.30;;;;;;5008121;28;20367;-88
2022/09/13 11:07:10;;;;;;;1.83;1.20;;;23.80;77.00;;;;;;5003826;28;20026;-88
2022/09/13 11:09:44;;;;;;;1.30;1.20;;;23.90;74.70;;;;;;5004039;28;20073;-88
2022/09/13 11:12:24;;;;;;;1.02;1.00;;;23.70;77.80;;;;;;5019551;28;20033;-87
2022/09/13 11:15:20;;;;;;;1.52;1.25;;;23.80;79.30;;;;;;4999741;28;20610;-88
2022/09/13 11:18:27;;;;;;;1.50;1.40;;;23.90;76.00;;;;;;5012814;28;20037;-89
2022/09/13 11:21:23;;;;;;;1.15;1.00;;;24.00;77.40;;;;;;5003082;28;20033;-88
2022/09/13 11:24:12;;;;;;;1.35;1.25;;;24.00;69.30;;;;;;4977698;28;20053;-87
2022/09/13 11:26:57;;;;;;;1.10;1.10;;;24.00;76.10;;;;;;5001995;28;20037;-87
2022/09/13 11:29:35;;;;;;;1.45;1.30;;;23.60;75.90;;;;;;5000703;28;20577;-87
2022/09/13 11:32:26;;;;;;;1.38;1.27;;;23.30;74.10;;;;;;4998632;28;20036;-87
2022/09/13 11:35:16;;;;;;;1.60;1.40;;;23.40;77.40;;;;;;5013882;28;20045;-87
2022/09/13 11:37:48;;;;;;;1.15;1.15;;;23.70;83.20;;;;;;5019181;28;20026;-88
2022/09/13 11:40:55;;;;;;;2.65;1.33;;;23.80;81.90;;;;;;5006372;28;20046;-87
2022/09/13 11:43:58;;;;;;;1.52;1.42;;;24.00;81.60;;;;;;4996346;28;20030;-87
2022/09/13 11:46:38;;;;;;;2.78;1.38;;;24.10;76.20;;;;;;4984235;28;20439;-87
2022/09/13 11:49:34;;;;;;;2.75;1.40;;;24.10;75.70;;;;;;5019970;28;20022;-87
2022/09/13 11:52:16;;;;;;;1.35;1.30;;;24.20;86.40;;;;;;4965254;28;20042;-88
2022/09/13 11:55:10;;;;;;;1.65;1.40;;;24.30;84.40;;;;;;5019201;28;20029;-87
2022/09/13 11:57:51;;;;;;;1.98;1.20;;;24.40;70.30;;;;;;5030594;28;20097;-87
2022/09/13 12:00:16;;;;;;;1.52;1.42;;;24.50;72.90;;;;;;5001349;28;20110;-88
2022/09/13 12:02:55;;;;;;;1.25;1.17;;;24.30;76.60;;;;;;4998711;28;20050;-87
2022/09/13 12:05:25;;;;;;;1.27;1.20;;;24.40;72.40;;;;;;5003061;28;20033;-87
2022/09/13 12:08:01;;;;;;;2.45;1.25;;;24.30;73.30;;;;;;5005362;28;20048;-88
2022/09/13 12:10:56;;;;;;;1.58;1.17;;;24.30;69.60;;;;;;5000157;28;20022;-88
2022/09/13 12:13:29;;;;;;;1.88;1.05;;;24.40;70.30;;;;;;4999485;28;20052;-87
2022/09/13 12:16:00;;;;;;;1.25;1.15;;;24.30;71.80;;;;;;5005052;28;20124;-87
2022/09/13 12:18:31;;;;;;;1.42;1.10;;;24.30;67.60;;;;;;5005200;28;20029;-87
2022/09/13 12:21:06;;;;;;;1.02;1.02;;;24.20;65.30;;;;;;5003636;28;20030;-89
2022/09/13 12:23:37;;;;;;;1.92;1.10;;;24.10;71.10;;;;;;5006345;28;20040;-86
2022/09/13 12:26:31;;;;;;;1.20;1.10;;;24.20;68.40;;;;;;5001254;28;20030;-87
2022/09/13 12:29:01;;;;;;;1.10;1.10;;;24.20;68.40;;;;;;5000670;28;20089;-87
2022/09/13 12:31:33;;;;;;;1.23;1.05;;;24.10;65.80;;;;;;4997545;28;20038;-87
2022/09/13 12:34:04;;;;;;;1.15;1.05;;;24.20;65.40;;;;;;4997878;28;20036;-86
2022/09/13 12:36:45;;;;;;;1.20;1.10;;;24.20;64.10;;;;;;4999852;28;20022;-87
2022/09/13 12:39:16;;;;;;;1.30;1.20;;;24.30;66.80;;;;;;5016496;28;20030;-87
2022/09/13 12:42:25;;;;;;;1.38;1.20;;;24.40;67.00;;;;;;5000846;28;20026;-88
2022/09/13 12:45:09;;;;;;;1.20;1.20;;;24.40;67.30;;;;;;5001415;28;20391;-87
2022/09/13 12:47:38;;;;;;;1.77;0.98;;;24.40;65.00;;;;;;5002799;28;20045;-86
2022/09/13 12:50:18;;;;;;;1.00;1.00;;;24.40;63.90;;;;;;4998093;28;20030;-86
2022/09/13 12:53:06;;;;;;;1.48;1.10;;;24.40;62.90;;;;;;5004132;28;20032;-87
2022/09/13 12:55:50;;;;;;;1.13;1.02;;;24.50;65.40;;;;;;5005830;28;20038;-87
2022/09/13 12:58:27;;;;;;;1.10;1.08;;;24.60;63.40;;;;;;5013908;28;20037;-87
2022/09/13 13:01:05;;;;;;;0.97;0.90;;;24.50;63.10;;;;;;5007710;28;20070;-87
2022/09/13 13:03:33;;;;;;;;;;;24.70;63.20;;;;;;4999754;28;20941;-86
2022/09/13 13:06:26;;;;;;;1.95;1.10;;;24.80;65.00;;;;;;5022193;28;19913;-87
2022/09/13 13:08:55;;;;;;;1.08;1.08;;;24.90;62.00;;;;;;4997070;28;20038;-87
2022/09/13 13:11:30;;;;;;;1.50;1.35;;;24.90;63.40;;;;;;5004330;28;20032;-88
2022/09/13 13:14:08;;;;;;;1.10;1.10;;;25.00;66.20;;;;;;4982462;28;20050;-88
2022/09/13 13:16:40;;;;;;;1.00;1.00;;;24.90;61.40;;;;;;5002048;28;20041;-88
2022/09/13 13:19:28;;;;;;;1.25;1.00;;;25.20;62.40;;;;;;5005923;28;20073;-89
2022/09/13 13:21:54;;;;;;;2.00;1.20;;;25.30;60.60;;;;;;4995190;28;20108;-89
2022/09/13 13:24:20;;;;;;;1.48;1.00;;;25.40;63.60;;;;;;5009634;28;20022;-89